sensor_id;sensor_type;location;lat;lon;timestamp;P1;durP1;ratioP1;P2;durP2;ratioP2
25687;SDS011;17407;51.120;3.702;2023-11-19T00:01:10;21.58;;;5.60;;
25687;SDS011;17407;51.120;3.702;2023-11-19T00:03:36;20.38;;;5.88;;
25687;SDS011;17407;51.120;3.702;2023-11-19T00:06:01;29.10;;;5.63;;
25687;SDS011;17407;51.120;3.702;2023-11-19T00:08:29;20.77;;;4.82;;
25687;SDS011;17407;51.120;3.702;2023-11-19T00:10:55;30.00;;;4.65;;
25687;SDS011;17407;51.120;3.702;2023-11-19T00:13:20;20.30;;;5.07;;
25687;SDS011;17407;51.120;3.702;2023-11-19T00:15:46;26.33;;;5.00;;
25687;SDS011;17407;51.120;3.702;2023-11-19T00:18:12;28.42;;;5.05;;
25687;SDS011;17407;51.120;3.702;2023-11-19T00:20:39;29.77;;;5.35;;
25687;SDS011;17407;51.120;3.702;2023-11-19T00:23:05;19.00;;;5.05;;
25687;SDS011;17407;51.120;3.702;2023-11-19T00:25:30;23.65;;;4.32;;
25687;SDS011;17407;51.120;3.702;2023-11-19T00:27:56;26.35;;;5.43;;
25687;SDS011;17407;51.120;3.702;2023-11-19T00:30:22;34.17;;;5.35;;
25687;SDS011;17407;51.120;3.702;2023-11-19T00:32:47;27.45;;;4.80;;
25687;SDS011;17407;51.120;3.702;2023-11-19T00:35:13;23.42;;;5.30;;
25687;SDS011;17407;51.120;3.702;2023-11-19T00:37:39;31.13;;;6.20;;
25687;SDS011;17407;51.120;3.702;2023-11-19T00:40:05;35.58;;;6.53;;
25687;SDS011;17407;51.120;3.702;2023-11-19T00:42:31;24.52;;;6.03;;
25687;SDS011;17407;51.120;3.702;2023-11-19T00:44:57;32.25;;;6.45;;
25687;SDS011;17407;51.120;3.702;2023-11-19T00:47:23;35.38;;;6.63;;
25687;SDS011;17407;51.120;3.702;2023-11-19T00:49:49;29.60;;;6.55;;
25687;SDS011;17407;51.120;3.702;2023-11-19T00:52:18;36.80;;;6.40;;
25687;SDS011;17407;51.120;3.702;2023-11-19T00:54:43;35.17;;;5.80;;
25687;SDS011;17407;51.120;3.702;2023-11-19T00:57:09;26.85;;;6.00;;
25687;SDS011;17407;51.120;3.702;2023-11-19T00:59:35;33.45;;;6.47;;
25687;SDS011;17407;51.120;3.702;2023-11-19T01:02:01;40.00;;;7.35;;
25687;SDS011;17407;51.120;3.702;2023-11-19T01:04:34;35.88;;;5.85;;
25687;SDS011;17407;51.120;3.702;2023-11-19T01:07:04;41.72;;;6.85;;
25687;SDS011;17407;51.120;3.702;2023-11-19T01:09:31;33.42;;;7.38;;
25687;SDS011;17407;51.120;3.702;2023-11-19T01:11:57;35.13;;;6.45;;
25687;SDS011;17407;51.120;3.702;2023-11-19T01:14:25;33.00;;;6.03;;
25687;SDS011;17407;51.120;3.702;2023-11-19T01:16:51;41.33;;;7.50;;
25687;SDS011;17407;51.120;3.702;2023-11-19T01:19:18;40.80;;;8.18;;
25687;SDS011;17407;51.120;3.702;2023-11-19T01:21:44;39.13;;;7.47;;
25687;SDS011;17407;51.120;3.702;2023-11-19T01:24:10;46.42;;;7.03;;
25687;SDS011;17407;51.120;3.702;2023-11-19T01:26:38;36.22;;;6.70;;
25687;SDS011;17407;51.120;3.702;2023-11-19T01:29:03;36.15;;;7.20;;
25687;SDS011;17407;51.120;3.702;2023-11-19T01:31:29;50.90;;;8.27;;
25687;SDS011;17407;51.120;3.702;2023-11-19T01:33:58;46.05;;;8.30;;
25687;SDS011;17407;51.120;3.702;2023-11-19T01:36:24;27.55;;;7.28;;
25687;SDS011;17407;51.120;3.702;2023-11-19T01:38:50;46.55;;;8.63;;
25687;SDS011;17407;51.120;3.702;2023-11-19T01:41:15;50.58;;;7.22;;
25687;SDS011;17407;51.120;3.702;2023-11-19T01:43:41;46.70;;;7.57;;
25687;SDS011;17407;51.120;3.702;2023-11-19T01:46:07;43.28;;;7.85;;
25687;SDS011;17407;51.120;3.702;2023-11-19T01:48:36;32.30;;;6.40;;
25687;SDS011;17407;51.120;3.702;2023-11-19T01:51:05;51.70;;;8.27;;
25687;SDS011;17407;51.120;3.702;2023-11-19T01:53:32;45.20;;;7.78;;
25687;SDS011;17407;51.120;3.702;2023-11-19T01:55:59;46.88;;;8.77;;
25687;SDS011;17407;51.120;3.702;2023-11-19T01:58:26;44.20;;;7.15;;
25687;SDS011;17407;51.120;3.702;2023-11-19T02:00:52;38.03;;;7.78;;
25687;SDS011;17407;51.120;3.702;2023-11-19T02:03:18;44.78;;;6.68;;
25687;SDS011;17407;51.120;3.702;2023-11-19T02:05:45;41.55;;;8.32;;
25687;SDS011;17407;51.120;3.702;2023-11-19T02:08:13;42.42;;;7.53;;
25687;SDS011;17407;51.120;3.702;2023-11-19T02:10:39;44.08;;;8.80;;
25687;SDS011;17407;51.120;3.702;2023-11-19T02:13:05;45.60;;;8.15;;
25687;SDS011;17407;51.120;3.702;2023-11-19T02:15:35;48.50;;;7.20;;
25687;SDS011;17407;51.120;3.702;2023-11-19T02:23:25;37.90;;;7.20;;
25687;SDS011;17407;51.120;3.702;2023-11-19T02:25:57;36.15;;;6.50;;
25687;SDS011;17407;51.120;3.702;2023-11-19T02:28:36;46.28;;;7.60;;
25687;SDS011;17407;51.120;3.702;2023-11-19T02:31:02;48.20;;;7.97;;
25687;SDS011;17407;51.120;3.702;2023-11-19T02:33:30;39.03;;;7.43;;
25687;SDS011;17407;51.120;3.702;2023-11-19T02:35:55;48.70;;;8.75;;
25687;SDS011;17407;51.120;3.702;2023-11-19T02:38:21;45.88;;;7.57;;
25687;SDS011;17407;51.120;3.702;2023-11-19T02:40:47;39.17;;;8.45;;
25687;SDS011;17407;51.120;3.702;2023-11-19T02:43:14;39.00;;;7.72;;
25687;SDS011;17407;51.120;3.702;2023-11-19T02:45:40;37.25;;;7.70;;
25687;SDS011;17407;51.120;3.702;2023-11-19T02:48:05;46.50;;;8.75;;
25687;SDS011;17407;51.120;3.702;2023-11-19T02:50:31;44.90;;;8.65;;
25687;SDS011;17407;51.120;3.702;2023-11-19T02:52:57;44.53;;;7.63;;
25687;SDS011;17407;51.120;3.702;2023-11-19T02:55:23;42.20;;;7.28;;
25687;SDS011;17407;51.120;3.702;2023-11-19T02:57:49;46.10;;;8.07;;
25687;SDS011;17407;51.120;3.702;2023-11-19T03:02:48;52.47;;;8.57;;
25687;SDS011;17407;51.120;3.702;2023-11-19T03:05:23;42.97;;;8.18;;
25687;SDS011;17407;51.120;3.702;2023-11-19T03:07:49;41.17;;;7.93;;
25687;SDS011;17407;51.120;3.702;2023-11-19T03:10:15;44.22;;;8.40;;
25687;SDS011;17407;51.120;3.702;2023-11-19T03:12:40;47.03;;;8.80;;
25687;SDS011;17407;51.120;3.702;2023-11-19T03:15:07;47.80;;;8.40;;
25687;SDS011;17407;51.120;3.702;2023-11-19T03:17:35;41.53;;;9.32;;
25687;SDS011;17407;51.120;3.702;2023-11-19T03:20:08;49.40;;;8.20;;
25687;SDS011;17407;51.120;3.702;2023-11-19T03:22:39;38.95;;;8.77;;
25687;SDS011;17407;51.120;3.702;2023-11-19T03:25:06;36.83;;;6.72;;
25687;SDS011;17407;51.120;3.702;2023-11-19T03:27:42;53.28;;;8.52;;
25687;SDS011;17407;51.120;3.702;2023-11-19T03:30:08;49.20;;;8.30;;
25687;SDS011;17407;51.120;3.702;2023-11-19T03:32:34;44.95;;;8.35;;
25687;SDS011;17407;51.120;3.702;2023-11-19T03:35:03;44.22;;;8.32;;
25687;SDS011;17407;51.120;3.702;2023-11-19T03:37:32;46.42;;;7.60;;
25687;SDS011;17407;51.120;3.702;2023-11-19T03:39:58;47.97;;;9.00;;
25687;SDS011;17407;51.120;3.702;2023-11-19T03:42:28;53.20;;;8.93;;
25687;SDS011;17407;51.120;3.702;2023-11-19T03:44:55;55.35;;;9.30;;
25687;SDS011;17407;51.120;3.702;2023-11-19T03:47:21;45.45;;;8.45;;
25687;SDS011;17407;51.120;3.702;2023-11-19T03:49:48;45.53;;;6.97;;
25687;SDS011;17407;51.120;3.702;2023-11-19T03:52:14;57.85;;;8.30;;
25687;SDS011;17407;51.120;3.702;2023-11-19T03:54:40;51.63;;;8.00;;
25687;SDS011;17407;51.120;3.702;2023-11-19T03:57:06;44.28;;;7.40;;
25687;SDS011;17407;51.120;3.702;2023-11-19T03:59:32;48.97;;;8.50;;
25687;SDS011;17407;51.120;3.702;2023-11-19T04:01:58;44.42;;;7.50;;
25687;SDS011;17407;51.120;3.702;2023-11-19T04:04:25;37.72;;;8.75;;
25687;SDS011;17407;51.120;3.702;2023-11-19T04:06:52;44.50;;;8.20;;
25687;SDS011;17407;51.120;3.702;2023-11-19T04:09:18;39.83;;;7.80;;
25687;SDS011;17407;51.120;3.702;2023-11-19T04:11:44;45.17;;;8.43;;
25687;SDS011;17407;51.120;3.702;2023-11-19T04:14:12;56.70;;;7.85;;
25687;SDS011;17407;51.120;3.702;2023-11-19T04:16:43;49.72;;;8.32;;
25687;SDS011;17407;51.120;3.702;2023-11-19T04:19:12;54.10;;;9.00;;
25687;SDS011;17407;51.120;3.702;2023-11-19T04:21:39;41.53;;;8.02;;
25687;SDS011;17407;51.120;3.702;2023-11-19T04:24:06;48.15;;;9.27;;
25687;SDS011;17407;51.120;3.702;2023-11-19T04:26:32;48.17;;;8.32;;
25687;SDS011;17407;51.120;3.702;2023-11-19T04:28:58;58.83;;;8.98;;
25687;SDS011;17407;51.120;3.702;2023-11-19T04:31:24;51.95;;;9.05;;
25687;SDS011;17407;51.120;3.702;2023-11-19T04:33:56;61.40;;;8.30;;
25687;SDS011;17407;51.120;3.702;2023-11-19T04:36:22;55.25;;;9.13;;
25687;SDS011;17407;51.120;3.702;2023-11-19T04:38:49;40.17;;;7.43;;
25687;SDS011;17407;51.120;3.702;2023-11-19T04:41:15;36.92;;;7.60;;
25687;SDS011;17407;51.120;3.702;2023-11-19T04:43:41;48.60;;;7.60;;
25687;SDS011;17407;51.120;3.702;2023-11-19T04:46:07;42.35;;;8.20;;
25687;SDS011;17407;51.120;3.702;2023-11-19T04:48:34;47.90;;;8.52;;
25687;SDS011;17407;51.120;3.702;2023-11-19T04:51:00;48.00;;;7.95;;
25687;SDS011;17407;51.120;3.702;2023-11-19T04:53:25;48.05;;;8.23;;
25687;SDS011;17407;51.120;3.702;2023-11-19T04:55:51;50.08;;;8.35;;
25687;SDS011;17407;51.120;3.702;2023-11-19T04:58:17;38.33;;;8.20;;
25687;SDS011;17407;51.120;3.702;2023-11-19T05:00:42;43.63;;;8.07;;
25687;SDS011;17407;51.120;3.702;2023-11-19T05:03:08;48.25;;;9.25;;
25687;SDS011;17407;51.120;3.702;2023-11-19T05:05:34;54.30;;;10.18;;
25687;SDS011;17407;51.120;3.702;2023-11-19T05:07:59;42.28;;;7.72;;
25687;SDS011;17407;51.120;3.702;2023-11-19T05:10:26;50.00;;;8.93;;
25687;SDS011;17407;51.120;3.702;2023-11-19T05:12:52;43.58;;;7.70;;
25687;SDS011;17407;51.120;3.702;2023-11-19T05:15:17;37.20;;;7.32;;
25687;SDS011;17407;51.120;3.702;2023-11-19T05:17:43;44.42;;;8.48;;
25687;SDS011;17407;51.120;3.702;2023-11-19T05:20:10;44.88;;;8.25;;
25687;SDS011;17407;51.120;3.702;2023-11-19T05:22:41;45.53;;;8.10;;
25687;SDS011;17407;51.120;3.702;2023-11-19T05:25:08;45.25;;;7.93;;
25687;SDS011;17407;51.120;3.702;2023-11-19T05:27:34;50.58;;;9.75;;
25687;SDS011;17407;51.120;3.702;2023-11-19T05:30:01;51.05;;;9.30;;
25687;SDS011;17407;51.120;3.702;2023-11-19T05:32:27;55.15;;;8.82;;
25687;SDS011;17407;51.120;3.702;2023-11-19T05:34:53;52.58;;;8.57;;
25687;SDS011;17407;51.120;3.702;2023-11-19T05:37:18;60.22;;;7.20;;
25687;SDS011;17407;51.120;3.702;2023-11-19T05:39:44;53.15;;;8.60;;
25687;SDS011;17407;51.120;3.702;2023-11-19T05:42:10;45.95;;;8.52;;
25687;SDS011;17407;51.120;3.702;2023-11-19T05:44:36;34.63;;;8.10;;
25687;SDS011;17407;51.120;3.702;2023-11-19T05:47:02;55.70;;;8.52;;
25687;SDS011;17407;51.120;3.702;2023-11-19T05:49:28;46.05;;;8.52;;
25687;SDS011;17407;51.120;3.702;2023-11-19T05:51:54;49.97;;;8.20;;
25687;SDS011;17407;51.120;3.702;2023-11-19T05:54:21;45.80;;;8.07;;
25687;SDS011;17407;51.120;3.702;2023-11-19T05:56:47;53.05;;;9.02;;
25687;SDS011;17407;51.120;3.702;2023-11-19T05:59:14;50.63;;;9.40;;
25687;SDS011;17407;51.120;3.702;2023-11-19T06:01:42;55.72;;;8.05;;
25687;SDS011;17407;51.120;3.702;2023-11-19T06:04:08;48.88;;;8.60;;
25687;SDS011;17407;51.120;3.702;2023-11-19T06:06:35;50.00;;;7.05;;
25687;SDS011;17407;51.120;3.702;2023-11-19T06:09:01;44.85;;;8.05;;
25687;SDS011;17407;51.120;3.702;2023-11-19T06:11:27;53.58;;;8.07;;
25687;SDS011;17407;51.120;3.702;2023-11-19T06:13:53;46.28;;;9.15;;
25687;SDS011;17407;51.120;3.702;2023-11-19T06:16:19;42.90;;;7.95;;
25687;SDS011;17407;51.120;3.702;2023-11-19T06:18:45;44.38;;;8.00;;
25687;SDS011;17407;51.120;3.702;2023-11-19T06:21:11;54.53;;;9.10;;
25687;SDS011;17407;51.120;3.702;2023-11-19T06:23:37;45.60;;;9.55;;
25687;SDS011;17407;51.120;3.702;2023-11-19T06:26:03;44.38;;;7.53;;
25687;SDS011;17407;51.120;3.702;2023-11-19T06:28:30;46.90;;;9.23;;
25687;SDS011;17407;51.120;3.702;2023-11-19T06:30:56;47.03;;;8.60;;
25687;SDS011;17407;51.120;3.702;2023-11-19T06:33:23;45.03;;;8.88;;
25687;SDS011;17407;51.120;3.702;2023-11-19T06:35:49;48.30;;;8.70;;
25687;SDS011;17407;51.120;3.702;2023-11-19T06:38:15;53.92;;;8.07;;
25687;SDS011;17407;51.120;3.702;2023-11-19T06:40:40;46.97;;;8.95;;
25687;SDS011;17407;51.120;3.702;2023-11-19T06:43:06;38.50;;;8.52;;
25687;SDS011;17407;51.120;3.702;2023-11-19T06:45:34;41.92;;;7.95;;
25687;SDS011;17407;51.120;3.702;2023-11-19T06:48:01;61.08;;;8.98;;
25687;SDS011;17407;51.120;3.702;2023-11-19T06:50:29;57.67;;;9.27;;
25687;SDS011;17407;51.120;3.702;2023-11-19T06:52:54;40.63;;;8.85;;
25687;SDS011;17407;51.120;3.702;2023-11-19T06:55:20;43.53;;;8.18;;
25687;SDS011;17407;51.120;3.702;2023-11-19T06:57:46;41.63;;;8.20;;
25687;SDS011;17407;51.120;3.702;2023-11-19T07:00:11;46.55;;;9.25;;
25687;SDS011;17407;51.120;3.702;2023-11-19T07:02:37;44.97;;;7.68;;
25687;SDS011;17407;51.120;3.702;2023-11-19T07:05:04;39.92;;;8.55;;
25687;SDS011;17407;51.120;3.702;2023-11-19T07:07:31;46.50;;;8.82;;
25687;SDS011;17407;51.120;3.702;2023-11-19T07:09:57;45.42;;;8.70;;
25687;SDS011;17407;51.120;3.702;2023-11-19T07:12:23;52.95;;;9.13;;
25687;SDS011;17407;51.120;3.702;2023-11-19T07:14:51;42.70;;;8.70;;
25687;SDS011;17407;51.120;3.702;2023-11-19T07:17:18;48.38;;;9.07;;
25687;SDS011;17407;51.120;3.702;2023-11-19T07:19:45;55.50;;;10.13;;
25687;SDS011;17407;51.120;3.702;2023-11-19T07:22:11;63.03;;;9.25;;
25687;SDS011;17407;51.120;3.702;2023-11-19T07:24:38;67.30;;;9.35;;
25687;SDS011;17407;51.120;3.702;2023-11-19T07:27:05;52.78;;;7.65;;
25687;SDS011;17407;51.120;3.702;2023-11-19T07:29:31;57.72;;;9.88;;
25687;SDS011;17407;51.120;3.702;2023-11-19T07:31:57;59.20;;;9.77;;
25687;SDS011;17407;51.120;3.702;2023-11-19T07:34:23;59.25;;;10.18;;
25687;SDS011;17407;51.120;3.702;2023-11-19T07:36:49;40.72;;;9.55;;
25687;SDS011;17407;51.120;3.702;2023-11-19T07:39:15;56.28;;;7.60;;
25687;SDS011;17407;51.120;3.702;2023-11-19T07:41:41;61.55;;;9.55;;
25687;SDS011;17407;51.120;3.702;2023-11-19T07:44:06;67.80;;;10.10;;
25687;SDS011;17407;51.120;3.702;2023-11-19T07:46:32;44.83;;;7.60;;
25687;SDS011;17407;51.120;3.702;2023-11-19T07:48:58;57.95;;;8.93;;
25687;SDS011;17407;51.120;3.702;2023-11-19T07:51:23;46.17;;;8.77;;
25687;SDS011;17407;51.120;3.702;2023-11-19T07:53:49;51.38;;;9.63;;
25687;SDS011;17407;51.120;3.702;2023-11-19T07:56:15;58.25;;;9.23;;
25687;SDS011;17407;51.120;3.702;2023-11-19T07:58:41;50.28;;;8.25;;
25687;SDS011;17407;51.120;3.702;2023-11-19T08:01:06;48.15;;;9.55;;
25687;SDS011;17407;51.120;3.702;2023-11-19T08:03:32;52.67;;;8.43;;
25687;SDS011;17407;51.120;3.702;2023-11-19T08:06:00;45.08;;;8.63;;
25687;SDS011;17407;51.120;3.702;2023-11-19T08:08:27;46.15;;;8.10;;
25687;SDS011;17407;51.120;3.702;2023-11-19T08:10:55;47.33;;;8.55;;
25687;SDS011;17407;51.120;3.702;2023-11-19T08:13:21;52.25;;;8.18;;
25687;SDS011;17407;51.120;3.702;2023-11-19T08:15:48;54.90;;;9.55;;
25687;SDS011;17407;51.120;3.702;2023-11-19T08:18:14;48.88;;;8.45;;
25687;SDS011;17407;51.120;3.702;2023-11-19T08:20:40;58.00;;;9.38;;
25687;SDS011;17407;51.120;3.702;2023-11-19T08:23:06;55.30;;;9.55;;
25687;SDS011;17407;51.120;3.702;2023-11-19T08:25:32;52.13;;;10.15;;
25687;SDS011;17407;51.120;3.702;2023-11-19T08:28:01;44.55;;;8.82;;
25687;SDS011;17407;51.120;3.702;2023-11-19T08:30:28;47.00;;;8.30;;
25687;SDS011;17407;51.120;3.702;2023-11-19T08:32:54;45.53;;;9.18;;
25687;SDS011;17407;51.120;3.702;2023-11-19T08:35:20;39.88;;;7.95;;
25687;SDS011;17407;51.120;3.702;2023-11-19T08:37:46;49.90;;;9.82;;
25687;SDS011;17407;51.120;3.702;2023-11-19T08:40:11;47.92;;;8.90;;
25687;SDS011;17407;51.120;3.702;2023-11-19T08:42:40;51.00;;;9.68;;
25687;SDS011;17407;51.120;3.702;2023-11-19T08:45:06;51.47;;;9.35;;
25687;SDS011;17407;51.120;3.702;2023-11-19T08:47:35;44.15;;;9.18;;
25687;SDS011;17407;51.120;3.702;2023-11-19T08:50:01;45.20;;;8.48;;
25687;SDS011;17407;51.120;3.702;2023-11-19T08:52:28;55.28;;;9.38;;
25687;SDS011;17407;51.120;3.702;2023-11-19T08:54:55;54.22;;;9.40;;
25687;SDS011;17407;51.120;3.702;2023-11-19T08:57:21;45.00;;;9.00;;
25687;SDS011;17407;51.120;3.702;2023-11-19T08:59:46;39.70;;;8.15;;
25687;SDS011;17407;51.120;3.702;2023-11-19T09:02:12;44.67;;;9.35;;
25687;SDS011;17407;51.120;3.702;2023-11-19T09:04:38;43.75;;;7.82;;
25687;SDS011;17407;51.120;3.702;2023-11-19T09:07:03;52.22;;;8.77;;
25687;SDS011;17407;51.120;3.702;2023-11-19T09:09:29;44.10;;;9.85;;
25687;SDS011;17407;51.120;3.702;2023-11-19T09:11:55;43.65;;;8.75;;
25687;SDS011;17407;51.120;3.702;2023-11-19T09:14:21;48.80;;;8.95;;
25687;SDS011;17407;51.120;3.702;2023-11-19T09:16:51;41.17;;;8.77;;
25687;SDS011;17407;51.120;3.702;2023-11-19T09:19:17;49.80;;;8.07;;
25687;SDS011;17407;51.120;3.702;2023-11-19T09:21:42;53.78;;;9.77;;
25687;SDS011;17407;51.120;3.702;2023-11-19T09:24:08;47.75;;;8.15;;
25687;SDS011;17407;51.120;3.702;2023-11-19T09:26:34;50.15;;;8.70;;
25687;SDS011;17407;51.120;3.702;2023-11-19T09:29:01;38.33;;;7.68;;
25687;SDS011;17407;51.120;3.702;2023-11-19T09:31:27;39.78;;;8.27;;
25687;SDS011;17407;51.120;3.702;2023-11-19T09:33:53;43.60;;;8.27;;
25687;SDS011;17407;51.120;3.702;2023-11-19T09:36:18;34.20;;;7.40;;
25687;SDS011;17407;51.120;3.702;2023-11-19T09:38:44;39.72;;;8.68;;
25687;SDS011;17407;51.120;3.702;2023-11-19T09:41:10;40.50;;;7.75;;
25687;SDS011;17407;51.120;3.702;2023-11-19T09:43:41;44.08;;;8.45;;
25687;SDS011;17407;51.120;3.702;2023-11-19T09:46:11;36.88;;;8.18;;
25687;SDS011;17407;51.120;3.702;2023-11-19T09:48:39;46.13;;;7.35;;
25687;SDS011;17407;51.120;3.702;2023-11-19T09:51:10;43.97;;;8.73;;
25687;SDS011;17407;51.120;3.702;2023-11-19T09:53:36;57.65;;;10.40;;
25687;SDS011;17407;51.120;3.702;2023-11-19T09:56:02;41.35;;;8.10;;
25687;SDS011;17407;51.120;3.702;2023-11-19T09:58:33;39.67;;;8.43;;
25687;SDS011;17407;51.120;3.702;2023-11-19T10:00:59;41.40;;;7.80;;
25687;SDS011;17407;51.120;3.702;2023-11-19T10:03:34;49.05;;;8.02;;
25687;SDS011;17407;51.120;3.702;2023-11-19T10:06:03;51.58;;;8.50;;
25687;SDS011;17407;51.120;3.702;2023-11-19T10:08:29;50.95;;;8.70;;
25687;SDS011;17407;51.120;3.702;2023-11-19T10:10:55;36.75;;;6.65;;
25687;SDS011;17407;51.120;3.702;2023-11-19T10:13:25;37.83;;;7.55;;
25687;SDS011;17407;51.120;3.702;2023-11-19T10:15:52;33.72;;;7.50;;
25687;SDS011;17407;51.120;3.702;2023-11-19T10:18:18;37.03;;;8.07;;
25687;SDS011;17407;51.120;3.702;2023-11-19T10:20:48;37.55;;;6.95;;
25687;SDS011;17407;51.120;3.702;2023-11-19T10:23:14;43.20;;;8.30;;
25687;SDS011;17407;51.120;3.702;2023-11-19T10:25:40;35.17;;;7.45;;
25687;SDS011;17407;51.120;3.702;2023-11-19T10:28:06;33.53;;;7.13;;
25687;SDS011;17407;51.120;3.702;2023-11-19T10:30:31;31.05;;;6.80;;
25687;SDS011;17407;51.120;3.702;2023-11-19T10:33:05;40.85;;;6.95;;
25687;SDS011;17407;51.120;3.702;2023-11-19T10:35:37;38.53;;;7.68;;
25687;SDS011;17407;51.120;3.702;2023-11-19T10:38:23;40.17;;;7.85;;
25687;SDS011;17407;51.120;3.702;2023-11-19T10:40:49;33.45;;;7.82;;
25687;SDS011;17407;51.120;3.702;2023-11-19T10:43:16;34.33;;;7.78;;
25687;SDS011;17407;51.120;3.702;2023-11-19T10:45:42;41.00;;;7.22;;
25687;SDS011;17407;51.120;3.702;2023-11-19T10:48:08;39.83;;;6.85;;
25687;SDS011;17407;51.120;3.702;2023-11-19T10:50:38;36.10;;;6.63;;
25687;SDS011;17407;51.120;3.702;2023-11-19T10:53:06;40.60;;;8.82;;
25687;SDS011;17407;51.120;3.702;2023-11-19T10:55:34;29.75;;;8.02;;
25687;SDS011;17407;51.120;3.702;2023-11-19T10:58:01;33.75;;;6.88;;
25687;SDS011;17407;51.120;3.702;2023-11-19T11:00:29;47.20;;;7.88;;
25687;SDS011;17407;51.120;3.702;2023-11-19T11:03:01;40.65;;;7.63;;
25687;SDS011;17407;51.120;3.702;2023-11-19T11:39:14;35.25;;;6.72;;
25687;SDS011;17407;51.120;3.702;2023-11-19T11:41:41;41.40;;;8.43;;
25687;SDS011;17407;51.120;3.702;2023-11-19T11:44:06;43.00;;;7.85;;
25687;SDS011;17407;51.120;3.702;2023-11-19T11:49:05;41.55;;;7.63;;
25687;SDS011;17407;51.120;3.702;2023-11-19T11:57:09;48.70;;;9.30;;
25687;SDS011;17407;51.120;3.702;2023-11-19T11:59:37;29.10;;;7.05;;
25687;SDS011;17407;51.120;3.702;2023-11-19T12:02:09;34.15;;;6.85;;
25687;SDS011;17407;51.120;3.702;2023-11-19T12:04:37;31.88;;;7.80;;
25687;SDS011;17407;51.120;3.702;2023-11-19T12:09:39;33.10;;;6.90;;
25687;SDS011;17407;51.120;3.702;2023-11-19T12:12:22;30.55;;;7.30;;
25687;SDS011;17407;51.120;3.702;2023-11-19T12:20:02;29.33;;;7.63;;
25687;SDS011;17407;51.120;3.702;2023-11-19T12:22:31;37.00;;;8.15;;
25687;SDS011;17407;51.120;3.702;2023-11-19T12:24:57;33.13;;;7.68;;
25687;SDS011;17407;51.120;3.702;2023-11-19T12:27:23;31.90;;;7.45;;
25687;SDS011;17407;51.120;3.702;2023-11-19T12:29:49;38.55;;;8.30;;
25687;SDS011;17407;51.120;3.702;2023-11-19T12:32:15;35.90;;;6.97;;
25687;SDS011;17407;51.120;3.702;2023-11-19T12:34:41;30.50;;;7.18;;
25687;SDS011;17407;51.120;3.702;2023-11-19T12:37:07;33.15;;;6.90;;
25687;SDS011;17407;51.120;3.702;2023-11-19T12:39:34;38.20;;;7.18;;
25687;SDS011;17407;51.120;3.702;2023-11-19T12:42:00;38.60;;;8.23;;
25687;SDS011;17407;51.120;3.702;2023-11-19T12:44:26;41.47;;;7.78;;
25687;SDS011;17407;51.120;3.702;2023-11-19T12:47:05;33.47;;;6.95;;
25687;SDS011;17407;51.120;3.702;2023-11-19T12:49:34;30.98;;;6.35;;
25687;SDS011;17407;51.120;3.702;2023-11-19T12:52:00;35.58;;;7.30;;
25687;SDS011;17407;51.120;3.702;2023-11-19T12:54:33;28.83;;;6.82;;
25687;SDS011;17407;51.120;3.702;2023-11-19T12:56:59;26.13;;;6.00;;
25687;SDS011;17407;51.120;3.702;2023-11-19T12:59:24;33.72;;;6.03;;
25687;SDS011;17407;51.120;3.702;2023-11-19T13:01:55;20.70;;;5.32;;
25687;SDS011;17407;51.120;3.702;2023-11-19T13:04:28;23.95;;;5.70;;
25687;SDS011;17407;51.120;3.702;2023-11-19T13:06:56;21.90;;;6.43;;
25687;SDS011;17407;51.120;3.702;2023-11-19T13:09:25;22.17;;;5.93;;
25687;SDS011;17407;51.120;3.702;2023-11-19T13:11:53;32.08;;;6.70;;
25687;SDS011;17407;51.120;3.702;2023-11-19T13:14:19;25.75;;;6.95;;
25687;SDS011;17407;51.120;3.702;2023-11-19T13:16:45;32.25;;;6.70;;
25687;SDS011;17407;51.120;3.702;2023-11-19T13:19:17;35.75;;;7.63;;
25687;SDS011;17407;51.120;3.702;2023-11-19T13:21:44;30.95;;;7.88;;
25687;SDS011;17407;51.120;3.702;2023-11-19T13:24:12;26.42;;;6.88;;
25687;SDS011;17407;51.120;3.702;2023-11-19T13:26:38;28.90;;;6.13;;
25687;SDS011;17407;51.120;3.702;2023-11-19T13:29:04;27.42;;;7.00;;
25687;SDS011;17407;51.120;3.702;2023-11-19T13:31:30;29.17;;;6.55;;
25687;SDS011;17407;51.120;3.702;2023-11-19T13:33:55;32.25;;;7.35;;
25687;SDS011;17407;51.120;3.702;2023-11-19T13:36:23;30.73;;;7.13;;
25687;SDS011;17407;51.120;3.702;2023-11-19T13:38:50;42.42;;;8.68;;
25687;SDS011;17407;51.120;3.702;2023-11-19T13:41:16;39.20;;;8.20;;
25687;SDS011;17407;51.120;3.702;2023-11-19T13:43:42;36.92;;;7.32;;
25687;SDS011;17407;51.120;3.702;2023-11-19T13:46:08;39.60;;;8.68;;
25687;SDS011;17407;51.120;3.702;2023-11-19T13:48:36;35.92;;;7.22;;
25687;SDS011;17407;51.120;3.702;2023-11-19T13:51:02;37.60;;;7.82;;
25687;SDS011;17407;51.120;3.702;2023-11-19T13:53:28;48.33;;;8.45;;
25687;SDS011;17407;51.120;3.702;2023-11-19T13:55:53;32.95;;;6.70;;
25687;SDS011;17407;51.120;3.702;2023-11-19T13:58:19;45.83;;;9.63;;
25687;SDS011;17407;51.120;3.702;2023-11-19T14:00:44;34.33;;;8.80;;
25687;SDS011;17407;51.120;3.702;2023-11-19T14:03:10;41.15;;;8.25;;
25687;SDS011;17407;51.120;3.702;2023-11-19T14:05:36;35.72;;;7.97;;
25687;SDS011;17407;51.120;3.702;2023-11-19T14:08:03;40.95;;;8.70;;
25687;SDS011;17407;51.120;3.702;2023-11-19T14:10:36;36.30;;;7.30;;
25687;SDS011;17407;51.120;3.702;2023-11-19T14:13:07;32.70;;;6.30;;
25687;SDS011;17407;51.120;3.702;2023-11-19T14:15:33;40.60;;;7.32;;
25687;SDS011;17407;51.120;3.702;2023-11-19T14:18:00;25.27;;;5.53;;
25687;SDS011;17407;51.120;3.702;2023-11-19T14:20:25;31.33;;;6.05;;
25687;SDS011;17407;51.120;3.702;2023-11-19T14:22:51;29.95;;;6.03;;
25687;SDS011;17407;51.120;3.702;2023-11-19T14:25:17;22.08;;;4.90;;
25687;SDS011;17407;51.120;3.702;2023-11-19T14:27:44;27.85;;;6.30;;
25687;SDS011;17407;51.120;3.702;2023-11-19T14:30:11;29.98;;;6.72;;
25687;SDS011;17407;51.120;3.702;2023-11-19T14:32:41;26.70;;;6.18;;
25687;SDS011;17407;51.120;3.702;2023-11-19T14:35:08;33.78;;;6.32;;
25687;SDS011;17407;51.120;3.702;2023-11-19T14:37:34;34.00;;;6.28;;
25687;SDS011;17407;51.120;3.702;2023-11-19T14:40:00;36.53;;;7.05;;
25687;SDS011;17407;51.120;3.702;2023-11-19T14:42:29;43.70;;;7.30;;
25687;SDS011;17407;51.120;3.702;2023-11-19T14:44:55;36.83;;;7.43;;
25687;SDS011;17407;51.120;3.702;2023-11-19T14:47:21;28.38;;;7.15;;
25687;SDS011;17407;51.120;3.702;2023-11-19T14:49:47;39.35;;;7.22;;
25687;SDS011;17407;51.120;3.702;2023-11-19T14:52:13;30.60;;;7.35;;
25687;SDS011;17407;51.120;3.702;2023-11-19T14:54:39;36.50;;;7.43;;
25687;SDS011;17407;51.120;3.702;2023-11-19T14:57:05;40.15;;;7.10;;
25687;SDS011;17407;51.120;3.702;2023-11-19T14:59:33;38.13;;;7.78;;
25687;SDS011;17407;51.120;3.702;2023-11-19T15:01:59;34.10;;;6.80;;
25687;SDS011;17407;51.120;3.702;2023-11-19T15:04:26;42.25;;;7.72;;
25687;SDS011;17407;51.120;3.702;2023-11-19T15:06:52;34.00;;;6.65;;
25687;SDS011;17407;51.120;3.702;2023-11-19T15:09:18;50.33;;;16.65;;
25687;SDS011;17407;51.120;3.702;2023-11-19T15:11:46;33.53;;;9.32;;
25687;SDS011;17407;51.120;3.702;2023-11-19T15:14:12;32.22;;;6.88;;
25687;SDS011;17407;51.120;3.702;2023-11-19T15:16:41;30.85;;;7.35;;
25687;SDS011;17407;51.120;3.702;2023-11-19T15:19:07;29.13;;;7.80;;
25687;SDS011;17407;51.120;3.702;2023-11-19T15:21:33;27.52;;;6.35;;
25687;SDS011;17407;51.120;3.702;2023-11-19T15:23:59;27.10;;;6.82;;
25687;SDS011;17407;51.120;3.702;2023-11-19T15:26:29;32.58;;;5.85;;
25687;SDS011;17407;51.120;3.702;2023-11-19T15:28:55;37.40;;;8.20;;